Wetterdaten: Woche 12.02.18 - 18.02.18 (KW7)
Datum Zeit Temp. Aussen Temp. o. S. +5cm Feuchte Auss BlattFeu 1 Luftdruck Regen Sonnenschein Regendauer Solar Windben Empfang
12.02.2018 00:00 1,2 C 0,8 C -0,8 C 92 % 12 lf 1005,5 hPa 0,0 l/m 0,00 h 0,57 h 0 W/m 23,8 km/h (4 Bft) 95,73 %
12.02.2018 01:00 1,1 C 0,6 C -0,7 C 94 % 15 lf 1006,1 hPa 0,2 l/m 0,00 h 0,07 h 0 W/m 22,7 km/h (4 Bft) 97,01 %
12.02.2018 02:00 0,8 C 0,3 C -0,9 C 95 % 15 lf 1006,7 hPa 0,0 l/m 0,00 h 0,10 h 0 W/m 22,0 km/h (4 Bft) 96,02 %
12.02.2018 03:00 0,9 C 0,5 C -0,7 C 95 % 15 lf 1007,2 hPa 0,0 l/m 0,00 h 0,13 h 0 W/m 21,6 km/h (4 Bft) 95,87 %
12.02.2018 04:00 1,0 C 0,6 C -0,6 C 95 % 13 lf 1007,7 hPa 0,0 l/m 0,00 h 0,27 h 0 W/m 22,1 km/h (4 Bft) 96,86 %
12.02.2018 05:00 1,1 C 0,6 C -0,6 C 95 % 1 lf 1008,3 hPa 0,2 l/m 0,00 h 0,03 h 0 W/m 23,4 km/h (4 Bft) 97,45 %
12.02.2018 06:00 1,1 C 0,6 C -0,6 C 94 % 0 lf 1009,0 hPa 0,0 l/m 0,00 h 0,10 h 0 W/m 22,1 km/h (4 Bft) 96,22 %
12.02.2018 07:00 1,1 C 0,7 C -0,6 C 94 % 0 lf 1009,8 hPa 0,0 l/m 0,00 h 0,07 h 5 W/m 21,6 km/h (4 Bft) 95,57 %
12.02.2018 08:00 1,2 C 1,4 C -0,3 C 93 % 0 lf 1010,6 hPa 0,0 l/m 0,20 h 0,00 h 34 W/m 23,2 km/h (4 Bft) 97,44 %
12.02.2018 09:00 1,5 C 3,8 C 0,2 C 93 % 0 lf 1011,5 hPa 0,2 l/m 0,67 h 0,03 h 135 W/m 22,4 km/h (4 Bft) 96,88 %
12.02.2018 10:00 2,7 C 6,9 C 2,1 C 89 % 0 lf 1012,3 hPa 0,2 l/m 0,83 h 0,00 h 228 W/m 25,0 km/h (4 Bft) 95,51 %
12.02.2018 11:00 3,9 C 10,1 C 2,9 C 83 % 0 lf 1012,9 hPa 0,0 l/m 0,90 h 0,00 h 344 W/m 24,4 km/h (4 Bft) 97,57 %
12.02.2018 12:00 4,8 C 10,2 C 3,5 C 76 % 0 lf 1013,4 hPa 0,0 l/m 0,77 h 0,00 h 351 W/m 26,0 km/h (4 Bft) 95,16 %
12.02.2018 13:00 5,9 C 12,6 C 4,4 C 71 % 0 lf 1013,4 hPa 0,0 l/m 0,87 h 0,00 h 427 W/m 27,3 km/h (4 Bft) 97,22 %
12.02.2018 14:00 5,4 C 8,3 C 4,4 C 72 % 0 lf 1013,4 hPa 0,0 l/m 0,53 h 0,00 h 215 W/m 27,7 km/h (4 Bft) 96,79 %
12.02.2018 15:00 5,0 C 8,7 C 4,0 C 76 % 0 lf 1013,6 hPa 0,0 l/m 1,00 h 0,00 h 227 W/m 26,0 km/h (4 Bft) 95,44 %
12.02.2018 16:00 4,6 C 5,1 C 3,1 C 77 % 0 lf 1013,8 hPa 0,0 l/m 0,63 h 0,00 h 95 W/m 22,8 km/h (4 Bft) 97,36 %
12.02.2018 17:00 3,6 C 2,9 C 1,3 C 79 % 0 lf 1014,2 hPa 0,0 l/m 0,00 h 0,00 h 15 W/m 18,1 km/h (3 Bft) 95,02 %
12.02.2018 18:00 2,5 C 1,8 C 0,0 C 81 % 0 lf 1014,6 hPa 0,0 l/m 0,00 h 0,00 h 0 W/m 12,8 km/h (3 Bft) 95,37 %
12.02.2018 19:00 1,9 C 1,2 C -0,8 C 83 % 0 lf 1014,9 hPa 0,0 l/m 0,00 h 0,00 h 0 W/m 10,3 km/h (2 Bft) 99,22 %
12.02.2018 20:00 1,5 C 1,0 C -0,7 C 85 % 0 lf 1015,1 hPa 0,0 l/m 0,00 h 0,00 h 0 W/m 12,7 km/h (3 Bft) 95,52 %
12.02.2018 21:00 1,0 C 0,3 C -1,6 C 85 % 0 lf 1015,1 hPa 0,0 l/m 0,00 h 0,00 h 0 W/m 10,0 km/h (2 Bft) 96,44 %
12.02.2018 22:00 0,4 C -0,3 C -2,3 C 85 % 0 lf 1015,2 hPa 0,0 l/m 0,00 h 0,00 h 0 W/m 8,7 km/h (2 Bft) 96,37 %
12.02.2018 23:00 0,1 C -0,5 C -2,8 C 86 % 0 lf 1015,0 hPa 0,0 l/m 0,00 h 0,00 h 0 W/m 8,5 km/h (2 Bft) 94,73 %
13.02.2018 00:00 -0,4 C -1,0 C -3,4 C 87 % 0 lf 1015,0 hPa 0,0 l/m 0,00 h 0,00 h 0 W/m 7,5 km/h (2 Bft) 97,60 %
13.02.2018 01:00 -0,8 C -1,1 C -3,3 C 88 % 0 lf 1014,9 hPa 0,0 l/m 0,00 h 0,00 h 0 W/m 10,2 km/h (2 Bft) 96,08 %
13.02.2018 02:00 -0,7 C -1,0 C -2,9 C 89 % 0 lf 1014,6 hPa 0,0 l/m 0,00 h 0,00 h 0 W/m 11,3 km/h (2 Bft) 95,79 %
13.02.2018 03:00 -1,0 C -1,3 C -3,3 C 89 % 0 lf 1014,3 hPa 0,0 l/m 0,00 h 0,00 h 0 W/m 8,9 km/h (2 Bft) 95,76 %
13.02.2018 04:00 -1,2 C -1,5 C -3,2 C 90 % 0 lf 1013,8 hPa 0,0 l/m 0,00 h 0,00 h 0 W/m 10,1 km/h (2 Bft) 98,38 %
13.02.2018 05:00 -1,5 C -1,7 C -3,3 C 91 % 0 lf 1013,4 hPa 0,0 l/m 0,00 h 0,00 h 0 W/m 10,1 km/h (2 Bft) 97,55 %
13.02.2018 06:00 -1,8 C -2,1 C -3,6 C 91 % 0 lf 1013,0 hPa 0,0 l/m 0,00 h 0,00 h 0 W/m 13,0 km/h (3 Bft) 97,08 %
13.02.2018 07:00 -1,9 C -2,2 C -3,7 C 92 % 0 lf 1012,8 hPa 0,0 l/m 0,00 h 0,00 h 7 W/m 12,9 km/h (3 Bft) 98,40 %
13.02.2018 08:00 -1,8 C -1,6 C -3,3 C 92 % 0 lf 1012,7 hPa 0,0 l/m 0,43 h 0,00 h 43 W/m 11,8 km/h (2 Bft) 97,31 %
13.02.2018 09:00 -0,5 C 2,6 C -1,3 C 91 % 0 lf 1012,3 hPa 0,0 l/m 1,00 h 0,00 h 180 W/m 13,6 km/h (3 Bft) 95,88 %
13.02.2018 10:00 2,1 C 7,6 C 0,8 C 84 % 0 lf 1012,1 hPa 0,0 l/m 1,00 h 0,00 h 313 W/m 19,7 km/h (3 Bft) 98,15 %
13.02.2018 11:00 3,7 C 9,0 C 1,7 C 77 % 0 lf 1011,8 hPa 0,0 l/m 1,00 h 0,00 h 399 W/m 23,5 km/h (4 Bft) 97,08 %
13.02.2018 12:00 4,5 C 8,9 C 3,2 C 73 % 0 lf 1011,3 hPa 0,0 l/m 1,00 h 0,00 h 434 W/m 31,0 km/h (5 Bft) 96,46 %
13.02.2018 13:00 5,5 C 10,2 C 3,9 C 69 % 0 lf 1010,7 hPa 0,0 l/m 1,00 h 0,00 h 420 W/m 28,3 km/h (4 Bft) 96,09 %
13.02.2018 14:00 5,6 C 8,8 C 3,9 C 66 % 0 lf 1009,9 hPa 0,0 l/m 0,83 h 0,00 h 313 W/m 29,9 km/h (5 Bft) 97,79 %
13.02.2018 15:00 5,4 C 8,3 C 4,0 C 63 % 0 lf 1009,4 hPa 0,0 l/m 1,00 h 0,00 h 238 W/m 33,5 km/h (5 Bft) 96,37 %
13.02.2018 16:00 4,7 C 4,9 C 2,7 C 63 % 0 lf 1009,2 hPa 0,0 l/m 0,57 h 0,00 h 90 W/m 26,6 km/h (4 Bft) 97,64 %
13.02.2018 17:00 3,9 C 3,4 C 1,2 C 65 % 0 lf 1009,3 hPa 0,0 l/m 0,00 h 0,00 h 16 W/m 18,9 km/h (3 Bft) 96,80 %
13.02.2018 18:00 2,6 C 1,8 C -0,5 C 70 % 0 lf 1009,6 hPa 0,0 l/m 0,00 h 0,00 h 0 W/m 15,7 km/h (3 Bft) 97,29 %
13.02.2018 19:00 1,6 C 1,1 C -1,3 C 72 % 0 lf 1009,8 hPa 0,0 l/m 0,00 h 0,00 h 0 W/m 13,4 km/h (3 Bft) 94,31 %
13.02.2018 20:00 1,3 C 1,1 C -0,9 C 74 % 0 lf 1010,0 hPa 0,0 l/m 0,00 h 0,00 h 0 W/m 20,1 km/h (4 Bft) 98,71 %
13.02.2018 21:00 1,0 C 0,7 C -1,4 C 74 % 0 lf 1010,4 hPa 0,0 l/m 0,00 h 0,00 h 0 W/m 16,1 km/h (3 Bft) 96,51 %
13.02.2018 22:00 0,4 C -0,0 C -2,1 C 75 % 0 lf 1010,8 hPa 0,0 l/m 0,00 h 0,00 h 0 W/m 13,0 km/h (3 Bft) 96,15 %
13.02.2018 23:00 -0,4 C -1,1 C -3,3 C 77 % 0 lf 1011,0 hPa 0,0 l/m 0,00 h 0,00 h 0 W/m 10,7 km/h (2 Bft) 95,59 %
14.02.2018 00:00 -1,1 C -1,6 C -3,7 C 80 % 0 lf 1011,4 hPa 0,0 l/m 0,00 h 0,00 h 0 W/m 11,6 km/h (2 Bft) 96,33 %
14.02.2018 01:00 -1,3 C -1,7 C -3,8 C 81 % 0 lf 1011,7 hPa 0,0 l/m 0,00 h 0,00 h 0 W/m 11,8 km/h (2 Bft) 96,16 %
14.02.2018 02:00 -1,5 C -1,7 C -3,8 C 81 % 0 lf 1012,0 hPa 0,0 l/m 0,00 h 0,00 h 0 W/m 14,8 km/h (3 Bft) 98,93 %
14.02.2018 03:00 -1,6 C -1,7 C -3,8 C 81 % 0 lf 1012,3 hPa 0,0 l/m 0,00 h 0,00 h 0 W/m 15,4 km/h (3 Bft) 94,16 %
14.02.2018 04:00 -1,7 C -2,0 C -3,9 C 81 % 0 lf 1012,7 hPa 0,0 l/m 0,00 h 0,00 h 0 W/m 15,5 km/h (3 Bft) 96,93 %
14.02.2018 05:00 -1,9 C -2,2 C -4,4 C 81 % 0 lf 1013,2 hPa 0,0 l/m 0,00 h 0,00 h 0 W/m 14,1 km/h (3 Bft) 96,58 %
14.02.2018 06:00 -2,2 C -2,2 C -4,1 C 82 % 0 lf 1013,5 hPa 0,0 l/m 0,00 h 0,00 h 0 W/m 20,0 km/h (4 Bft) 97,77 %
14.02.2018 07:00 -2,3 C -2,6 C -4,4 C 82 % 0 lf 1014,0 hPa 0,0 l/m 0,00 h 0,00 h 7 W/m 19,6 km/h (3 Bft) 94,40 %
14.02.2018 08:00 -2,4 C -2,3 C -4,1 C 83 % 0 lf 1014,5 hPa 0,0 l/m 0,47 h 0,00 h 49 W/m 17,2 km/h (3 Bft) 96,99 %
14.02.2018 09:00 -1,4 C 1,2 C -2,3 C 82 % 0 lf 1015,0 hPa 0,0 l/m 0,98 h 0,00 h 197 W/m 26,0 km/h (4 Bft) 97,47 %
14.02.2018 10:00 0,6 C 5,4 C -0,3 C 76 % 0 lf 1015,3 hPa 0,0 l/m 1,00 h 0,00 h 329 W/m 28,7 km/h (4 Bft) 96,23 %
14.02.2018 11:00 2,2 C 7,2 C 0,7 C 71 % 0 lf 1015,4 hPa 0,0 l/m 1,00 h 0,00 h 413 W/m 30,2 km/h (5 Bft) 97,55 %
14.02.2018 12:00 3,5 C 8,5 C 2,2 C 66 % 0 lf 1015,2 hPa 0,0 l/m 1,00 h 0,00 h 450 W/m 31,1 km/h (5 Bft) 96,36 %
14.02.2018 13:00 4,7 C 9,3 C 2,9 C 61 % 0 lf 1014,9 hPa 0,0 l/m 1,00 h 0,00 h 435 W/m 35,3 km/h (5 Bft) 96,87 %
14.02.2018 14:00 5,1 C 9,0 C 3,5 C 59 % 0 lf 1014,5 hPa 0,0 l/m 1,00 h 0,00 h 372 W/m 37,6 km/h (5 Bft) 94,73 %
14.02.2018 15:00 5,1 C 8,1 C 3,5 C 58 % 0 lf 1014,2 hPa 0,0 l/m 1,00 h 0,00 h 242 W/m 32,5 km/h (5 Bft) 96,65 %
14.02.2018 16:00 4,6 C 5,0 C 2,6 C 58 % 0 lf 1014,4 hPa 0,0 l/m 0,77 h 0,00 h 99 W/m 31,0 km/h (5 Bft) 95,87 %
14.02.2018 17:00 3,9 C 3,6 C 1,4 C 59 % 0 lf 1014,6 hPa 0,0 l/m 0,17 h 0,00 h 23 W/m 23,3 km/h (4 Bft) 96,30 %
14.02.2018 18:00 3,1 C 2,9 C 1,0 C 62 % 0 lf 1014,7 hPa 0,0 l/m 0,00 h 0,00 h 0 W/m 27,3 km/h (4 Bft) 97,38 %
14.02.2018 19:00 2,8 C 2,8 C 1,1 C 63 % 0 lf 1014,3 hPa 0,0 l/m 0,00 h 0,00 h 0 W/m 31,1 km/h (5 Bft) 97,63 %
14.02.2018 20:00 2,7 C 2,7 C 1,0 C 64 % 0 lf 1013,8 hPa 0,0 l/m 0,00 h 0,00 h 0 W/m 30,8 km/h (5 Bft) 94,38 %
14.02.2018 21:00 2,4 C 2,2 C 0,7 C 66 % 0 lf 1013,6 hPa 0,0 l/m 0,00 h 0,00 h 0 W/m 35,2 km/h (5 Bft) 97,15 %
14.02.2018 22:00 2,4 C 2,2 C 0,9 C 67 % 0 lf 1013,2 hPa 0,0 l/m 0,00 h 0,00 h 0 W/m 35,4 km/h (5 Bft) 97,87 %
14.02.2018 23:00 2,4 C 2,2 C 1,1 C 67 % 0 lf 1012,5 hPa 0,0 l/m 0,00 h 0,00 h 0 W/m 39,1 km/h (6 Bft) 95,51 %
15.02.2018 00:00 2,4 C 2,2 C 1,1 C 67 % 0 lf 1012,2 hPa 0,0 l/m 0,00 h 0,00 h 0 W/m 38,8 km/h (5 Bft) 95,57 %
15.02.2018 01:00 2,4 C 2,2 C 1,1 C 68 % 0 lf 1011,6 hPa 0,0 l/m 0,00 h 0,00 h 0 W/m 38,0 km/h (5 Bft) 97,68 %
15.02.2018 02:00 2,5 C 2,4 C 1,1 C 69 % 0 lf 1010,9 hPa 0,0 l/m 0,00 h 0,00 h 0 W/m 37,8 km/h (5 Bft) 94,14 %
15.02.2018 03:00 2,5 C 2,3 C 0,7 C 70 % 1 lf 1010,5 hPa 0,0 l/m 0,00 h 0,00 h 0 W/m 35,4 km/h (5 Bft) 99,02 %
15.02.2018 04:00 0,8 C 0,0 C -1,1 C 87 % 11 lf 1010,2 hPa 0,0 l/m 0,00 h 0,07 h 0 W/m 32,4 km/h (5 Bft) 90,10 %
15.02.2018 05:00 0,2 C -0,0 C -1,1 C 93 % 15 lf 1009,7 hPa 0,0 l/m 0,00 h 0,35 h 0 W/m 35,5 km/h (5 Bft) 96,47 %
15.02.2018 06:00 0,2 C -0,1 C -1,1 C 95 % 15 lf 1009,3 hPa 0,0 l/m 0,00 h 0,50 h 0 W/m 36,3 km/h (5 Bft) 97,95 %
15.02.2018 07:00 0,2 C 0,0 C -1,1 C 96 % 15 lf 1008,9 hPa 0,0 l/m 0,00 h 1,00 h 0 W/m 41,1 km/h (6 Bft) 95,94 %
15.02.2018 08:00 0,3 C 0,0 C -1,1 C 96 % 15 lf 1009,1 hPa 0,0 l/m 0,00 h 0,87 h 16 W/m 33,8 km/h (5 Bft) 95,04 %
15.02.2018 09:00 0,6 C 0,6 C -0,8 C 96 % 15 lf 1009,3 hPa 0,0 l/m 0,00 h 0,97 h 50 W/m 31,7 km/h (5 Bft) 96,86 %
15.02.2018 10:00 0,8 C 0,6 C -0,3 C 96 % 15 lf 1009,5 hPa 1,2 l/m 0,00 h 0,90 h 62 W/m 28,7 km/h (4 Bft) 95,55 %
15.02.2018 11:00 1,0 C 0,9 C -0,1 C 96 % 15 lf 1010,0 hPa 1,0 l/m 0,00 h 0,70 h 48 W/m 24,2 km/h (4 Bft) 98,00 %
15.02.2018 12:00 1,4 C 1,4 C 0,5 C 97 % 15 lf 1010,2 hPa 0,6 l/m 0,00 h 0,57 h 70 W/m 22,7 km/h (4 Bft) 96,24 %
15.02.2018 13:00 1,8 C 1,8 C 0,8 C 97 % 15 lf 1010,4 hPa 0,6 l/m 0,00 h 0,20 h 43 W/m 20,2 km/h (4 Bft) 94,82 %
15.02.2018 14:00 2,3 C 2,3 C 1,5 C 97 % 15 lf 1010,7 hPa 0,6 l/m 0,00 h 0,07 h 47 W/m 17,3 km/h (3 Bft) 98,57 %
15.02.2018 15:00 2,8 C 2,9 C 2,2 C 98 % 15 lf 1011,3 hPa 0,2 l/m 0,00 h 0,00 h 41 W/m 14,1 km/h (3 Bft) 96,58 %
15.02.2018 16:00 3,4 C 3,5 C 2,5 C 98 % 15 lf 1011,8 hPa 0,0 l/m 0,00 h 0,00 h 35 W/m 11,9 km/h (2 Bft) 94,87 %
15.02.2018 17:00 3,8 C 3,7 C 2,4 C 98 % 15 lf 1012,3 hPa 0,0 l/m 0,10 h 0,00 h 19 W/m 10,8 km/h (2 Bft) 96,87 %
15.02.2018 18:00 3,9 C 3,9 C 2,5 C 98 % 15 lf 1013,0 hPa 0,2 l/m 0,00 h 0,40 h 0 W/m 5,9 km/h (2 Bft) 96,54 %
15.02.2018 19:00 4,3 C 4,4 C 2,0 C 98 % 15 lf 1014,0 hPa 0,2 l/m 0,00 h 0,00 h 0 W/m 6,3 km/h (2 Bft) 96,25 %
15.02.2018 20:00 4,6 C 3,3 C -0,4 C 99 % 15 lf 1015,0 hPa 0,0 l/m 0,00 h 0,00 h 0 W/m 4,2 km/h (1 Bft) 95,68 %
15.02.2018 21:00 3,2 C 1,8 C -1,7 C 98 % 15 lf 1015,6 hPa 0,0 l/m 0,00 h 0,00 h 0 W/m 2,8 km/h (1 Bft) 95,13 %
15.02.2018 22:00 1,8 C 0,5 C -1,7 C 98 % 15 lf 1016,4 hPa 0,0 l/m 0,00 h 0,00 h 0 W/m 4,1 km/h (1 Bft) 97,51 %
15.02.2018 23:00 0,8 C 0,1 C -2,2 C 98 % 15 lf 1017,1 hPa 0,0 l/m 0,00 h 0,00 h 0 W/m 6,6 km/h (2 Bft) 96,05 %
16.02.2018 00:00 0,5 C -0,3 C -2,8 C 98 % 15 lf 1017,7 hPa 0,0 l/m 0,00 h 0,00 h 0 W/m 4,0 km/h (1 Bft) 95,22 %
16.02.2018 01:00 0,4 C -0,4 C -2,9 C 98 % 15 lf 1018,5 hPa 0,0 l/m 0,00 h 0,00 h 0 W/m 7,2 km/h (2 Bft) 97,01 %
16.02.2018 02:00 0,7 C 0,7 C -1,7 C 98 % 15 lf 1019,1 hPa 0,0 l/m 0,00 h 0,00 h 0 W/m 10,2 km/h (2 Bft) 97,16 %
16.02.2018 03:00 1,2 C 0,9 C -1,2 C 98 % 15 lf 1019,6 hPa 0,0 l/m 0,00 h 0,00 h 0 W/m 10,6 km/h (2 Bft) 95,62 %
16.02.2018 04:00 1,4 C 1,1 C -1,1 C 98 % 15 lf 1020,2 hPa 0,0 l/m 0,00 h 0,03 h 0 W/m 12,9 km/h (3 Bft) 96,73 %
16.02.2018 05:00 1,5 C 1,0 C -1,1 C 98 % 15 lf 1020,9 hPa 0,0 l/m 0,00 h 0,00 h 0 W/m 12,0 km/h (2 Bft) 96,25 %
16.02.2018 06:00 1,2 C 0,6 C -1,1 C 98 % 15 lf 1021,5 hPa 0,0 l/m 0,00 h 0,00 h 0 W/m 11,3 km/h (2 Bft) 97,55 %
16.02.2018 07:00 0,9 C 0,6 C -1,3 C 98 % 15 lf 1022,2 hPa 0,0 l/m 0,00 h 0,00 h 7 W/m 11,7 km/h (2 Bft) 95,54 %
16.02.2018 08:00 0,9 C 0,9 C -1,2 C 98 % 15 lf 1023,0 hPa 0,0 l/m 0,57 h 0,03 h 48 W/m 12,8 km/h (3 Bft) 96,04 %
16.02.2018 09:00 1,6 C 4,4 C 0,2 C 99 % 15 lf 1023,8 hPa 0,2 l/m 0,77 h 0,00 h 173 W/m 16,0 km/h (3 Bft) 95,94 %
16.02.2018 10:00 3,3 C 10,6 C 1,8 C 99 % 14 lf 1024,6 hPa 0,0 l/m 1,00 h 0,00 h 317 W/m 17,6 km/h (3 Bft) 96,92 %
16.02.2018 11:00 5,2 C 14,7 C 3,4 C 97 % 0 lf 1025,2 hPa 0,0 l/m 1,00 h 0,00 h 408 W/m 19,3 km/h (3 Bft) 96,50 %
16.02.2018 12:00 6,8 C 15,0 C 4,7 C 85 % 0 lf 1025,4 hPa 0,0 l/m 0,87 h 0,00 h 414 W/m 21,1 km/h (4 Bft) 97,26 %
16.02.2018 13:00 7,7 C 16,0 C 5,2 C 73 % 0 lf 1025,5 hPa 0,0 l/m 1,00 h 0,00 h 448 W/m 22,3 km/h (4 Bft) 96,09 %
16.02.2018 14:00 8,1 C 15,5 C 6,5 C 68 % 0 lf 1025,3 hPa 0,0 l/m 1,00 h 0,00 h 386 W/m 21,5 km/h (4 Bft) 92,09 %
16.02.2018 15:00 8,3 C 15,1 C 6,4 C 66 % 0 lf 1025,2 hPa 0,0 l/m 1,00 h 0,00 h 268 W/m 16,1 km/h (3 Bft) 97,00 %
16.02.2018 16:00 7,6 C 9,3 C 4,9 C 66 % 0 lf 1025,2 hPa 0,0 l/m 0,70 h 0,00 h 109 W/m 12,9 km/h (3 Bft) 96,53 %
16.02.2018 17:00 6,8 C 5,5 C 1,6 C 68 % 0 lf 1025,4 hPa 0,0 l/m 0,07 h 0,00 h 21 W/m 7,4 km/h (2 Bft) 98,36 %
16.02.2018 18:00 4,9 C 2,5 C -1,6 C 72 % 0 lf 1025,5 hPa 0,0 l/m 0,00 h 0,00 h 0 W/m 3,4 km/h (1 Bft) 97,80 %
16.02.2018 19:00 2,7 C 0,5 C -2,5 C 78 % 0 lf 1025,4 hPa 0,0 l/m 0,00 h 0,00 h 0 W/m 1,6 km/h (1 Bft) 94,81 %
16.02.2018 20:00 1,1 C -0,6 C -3,1 C 82 % 1 lf 1025,4 hPa 0,0 l/m 0,00 h 0,00 h 0 W/m 1,9 km/h (1 Bft) 96,43 %
16.02.2018 21:00 0,0 C -1,3 C -3,7 C 85 % 2 lf 1025,4 hPa 0,0 l/m 0,00 h 0,00 h 0 W/m 2,4 km/h (1 Bft) 96,92 %
16.02.2018 22:00 -0,6 C -1,4 C -3,7 C 89 % 4 lf 1025,4 hPa 0,0 l/m 0,00 h 0,00 h 0 W/m 4,1 km/h (1 Bft) 97,24 %
16.02.2018 23:00 -1,0 C -1,4 C -4,0 C 91 % 7 lf 1024,9 hPa 0,0 l/m 0,00 h 0,00 h 0 W/m 1,7 km/h (1 Bft) 96,14 %
17.02.2018 00:00 -1,2 C -1,5 C -3,9 C 92 % 11 lf 1024,8 hPa 0,0 l/m 0,00 h 0,00 h 0 W/m 4,6 km/h (1 Bft) 92,54 %
17.02.2018 01:00 -1,2 C -1,3 C -3,8 C 93 % 13 lf 1024,3 hPa 0,0 l/m 0,00 h 0,00 h 0 W/m 6,0 km/h (2 Bft) 95,80 %
17.02.2018 02:00 -1,0 C -1,0 C -3,4 C 94 % 13 lf 1023,7 hPa 0,0 l/m 0,00 h 0,00 h 0 W/m 4,5 km/h (1 Bft) 96,16 %
17.02.2018 03:00 -0,8 C -0,8 C -3,1 C 94 % 12 lf 1023,6 hPa 0,0 l/m 0,00 h 0,00 h 0 W/m 4,3 km/h (1 Bft) 98,62 %
17.02.2018 04:00 -1,0 C -1,6 C -3,4 C 94 % 11 lf 1022,9 hPa 0,0 l/m 0,00 h 0,00 h 0 W/m 0,0 km/h (0 Bft) 93,90 %
17.02.2018 05:00 -1,2 C -1,6 C -3,2 C 94 % 10 lf 1022,4 hPa 0,0 l/m 0,00 h 0,00 h 0 W/m 1,4 km/h (1 Bft) 97,26 %
17.02.2018 06:00 -1,2 C -1,5 C -3,2 C 95 % 7 lf 1021,8 hPa 0,0 l/m 0,00 h 0,00 h 0 W/m 0,0 km/h (0 Bft) 97,69 %
17.02.2018 07:00 -1,2 C -1,9 C -3,2 C 95 % 4 lf 1021,5 hPa 0,0 l/m 0,00 h 0,00 h 5 W/m 0,0 km/h (0 Bft) 95,80 %
17.02.2018 08:00 -1,3 C -1,4 C -2,6 C 95 % 2 lf 1021,3 hPa 0,0 l/m 0,00 h 0,00 h 26 W/m 0,7 km/h (0 Bft) 96,07 %
17.02.2018 09:00 -0,8 C 0,8 C -1,2 C 95 % 0 lf 1021,3 hPa 0,0 l/m 0,00 h 0,00 h 79 W/m 3,6 km/h (1 Bft) 96,46 %
17.02.2018 10:00 0,7 C 4,1 C 0,8 C 96 % 0 lf 1021,2 hPa 0,0 l/m 0,00 h 0,00 h 149 W/m 10,7 km/h (2 Bft) 95,32 %
17.02.2018 11:00 2,7 C 8,5 C 3,7 C 92 % 0 lf 1021,5 hPa 0,0 l/m 0,80 h 0,00 h 293 W/m 11,5 km/h (2 Bft) 99,05 %
17.02.2018 12:00 5,4 C 9,2 C 5,8 C 75 % 0 lf 1021,4 hPa 0,0 l/m 0,93 h 0,00 h 298 W/m 14,1 km/h (3 Bft) 95,08 %
17.02.2018 13:00 6,4 C 11,1 C 5,7 C 71 % 0 lf 1021,2 hPa 0,0 l/m 1,00 h 0,00 h 315 W/m 13,1 km/h (3 Bft) 95,24 %
17.02.2018 14:00 6,6 C 8,9 C 6,5 C 69 % 0 lf 1021,3 hPa 0,0 l/m 0,73 h 0,00 h 219 W/m 13,2 km/h (3 Bft) 97,55 %
17.02.2018 15:00 6,3 C 7,6 C 5,6 C 69 % 0 lf 1021,3 hPa 0,0 l/m 0,27 h 0,00 h 143 W/m 15,2 km/h (3 Bft) 96,16 %
17.02.2018 16:00 6,1 C 7,2 C 4,2 C 69 % 0 lf 1021,6 hPa 0,0 l/m 0,83 h 0,00 h 121 W/m 15,2 km/h (3 Bft) 95,87 %
17.02.2018 17:00 5,1 C 4,2 C 0,8 C 70 % 0 lf 1022,0 hPa 0,0 l/m 0,03 h 0,00 h 23 W/m 12,3 km/h (3 Bft) 96,28 %
17.02.2018 18:00 3,6 C 1,3 C -2,0 C 73 % 0 lf 1022,6 hPa 0,0 l/m 0,00 h 0,00 h 4 W/m 6,6 km/h (2 Bft) 95,19 %
17.02.2018 19:00 1,9 C 0,3 C -2,9 C 77 % 0 lf 1023,2 hPa 0,0 l/m 0,00 h 0,00 h 0 W/m 6,3 km/h (2 Bft) 97,04 %
17.02.2018 20:00 0,6 C -1,6 C -3,8 C 80 % 0 lf 1023,4 hPa 0,0 l/m 0,00 h 0,00 h 0 W/m 3,6 km/h (1 Bft) 98,50 %
17.02.2018 21:00 -0,8 C -2,7 C -4,5 C 81 % 2 lf 1023,9 hPa 0,0 l/m 0,00 h 0,00 h 0 W/m 0,5 km/h (0 Bft) 95,39 %
17.02.2018 22:00 -1,8 C -3,6 C -5,0 C 84 % 3 lf 1024,4 hPa 0,0 l/m 0,00 h 0,00 h 0 W/m 0,5 km/h (0 Bft) 95,58 %
17.02.2018 23:00 -2,4 C -3,2 C -5,2 C 88 % 1 lf 1024,6 hPa 0,0 l/m 0,00 h 0,00 h 0 W/m 2,2 km/h (1 Bft) 96,13 %
18.02.2018 00:00 -2,7 C -3,2 C -5,6 C 90 % 1 lf 1024,9 hPa 0,0 l/m 0,00 h 0,00 h 0 W/m 3,4 km/h (1 Bft) 97,96 %
18.02.2018 01:00 -2,8 C -3,4 C -5,9 C 92 % 1 lf 1025,0 hPa 0,0 l/m 0,00 h 0,00 h 0 W/m 4,6 km/h (1 Bft) 96,01 %
18.02.2018 02:00 -2,7 C -2,5 C -5,3 C 93 % 1 lf 1025,2 hPa 0,0 l/m 0,00 h 0,00 h 0 W/m 7,7 km/h (2 Bft) 96,31 %
18.02.2018 03:00 -2,2 C -2,4 C -4,6 C 94 % 1 lf 1025,2 hPa 0,0 l/m 0,00 h 0,00 h 0 W/m 9,9 km/h (2 Bft) 96,40 %
18.02.2018 04:00 -2,2 C -2,2 C -4,4 C 94 % 1 lf 1024,9 hPa 0,0 l/m 0,00 h 0,00 h 0 W/m 12,7 km/h (3 Bft) 95,83 %
18.02.2018 05:00 -2,2 C -2,2 C -4,4 C 94 % 1 lf 1025,1 hPa 0,0 l/m 0,00 h 0,00 h 0 W/m 13,4 km/h (3 Bft) 97,31 %
18.02.2018 06:00 -2,1 C -2,2 C -4,4 C 93 % 1 lf 1025,3 hPa 0,0 l/m 0,00 h 0,00 h 0 W/m 15,8 km/h (3 Bft) 96,54 %
18.02.2018 07:00 -2,1 C -2,2 C -4,4 C 92 % 1 lf 1025,3 hPa 0,0 l/m 0,00 h 0,00 h 9 W/m 15,8 km/h (3 Bft) 94,40 %
18.02.2018 08:00 -2,1 C -1,9 C -4,1 C 92 % 1 lf 1025,4 hPa 0,0 l/m 0,90 h 0,00 h 71 W/m 14,9 km/h (3 Bft) 97,65 %
18.02.2018 09:00 -1,1 C 2,3 C -2,1 C 93 % 2 lf 1025,4 hPa 0,2 l/m 1,00 h 0,00 h 212 W/m 15,7 km/h (3 Bft) 96,46 %
18.02.2018 10:00 1,1 C 6,5 C 0,3 C 89 % 5 lf 1025,6 hPa 0,0 l/m 1,00 h 0,00 h 326 W/m 17,9 km/h (3 Bft) 96,02 %
18.02.2018 11:00 2,7 C 8,1 C 1,9 C 83 % 0 lf 1025,8 hPa 0,0 l/m 1,00 h 0,00 h 390 W/m 16,3 km/h (3 Bft) 97,95 %
18.02.2018 12:00 4,9 C 12,1 C 3,8 C 79 % 0 lf 1025,6 hPa 0,0 l/m 1,00 h 0,00 h 453 W/m 13,8 km/h (3 Bft) 95,16 %
18.02.2018 13:00 6,6 C 12,5 C 4,7 C 74 % 0 lf 1025,0 hPa 0,0 l/m 1,00 h 0,00 h 436 W/m 15,6 km/h (3 Bft) 94,30 %
18.02.2018 14:00 7,2 C 11,2 C 5,3 C 72 % 0 lf 1024,5 hPa 0,0 l/m 1,00 h 0,00 h 298 W/m 16,4 km/h (3 Bft) 93,31 %
18.02.2018 15:00 7,1 C 8,7 C 6,2 C 72 % 0 lf 1024,1 hPa 0,0 l/m 1,00 h 0,00 h 207 W/m 17,6 km/h (3 Bft) 97,30 %
18.02.2018 16:00 6,5 C 6,8 C 4,7 C 71 % 0 lf 1023,9 hPa 0,0 l/m 0,37 h 0,00 h 93 W/m 11,7 km/h (2 Bft) 97,94 %
18.02.2018 17:00 5,7 C 5,1 C 1,8 C 70 % 0 lf 1023,6 hPa 0,0 l/m 0,13 h 0,00 h 26 W/m 8,4 km/h (2 Bft) 95,33 %
18.02.2018 18:00 4,3 C 2,7 C -1,8 C 72 % 0 lf 1023,5 hPa 0,0 l/m 0,00 h 0,00 h 0 W/m 7,2 km/h (2 Bft) 97,44 %
18.02.2018 19:00 2,8 C 1,9 C -2,2 C 76 % 0 lf 1023,4 hPa 0,0 l/m 0,00 h 0,00 h 0 W/m 8,6 km/h (2 Bft) 95,52 %
18.02.2018 20:00 2,0 C 1,6 C -1,3 C 80 % 0 lf 1023,3 hPa 0,0 l/m 0,00 h 0,00 h 0 W/m 10,7 km/h (2 Bft) 95,45 %
18.02.2018 21:00 1,4 C 1,0 C -1,4 C 83 % 0 lf 1023,1 hPa 0,0 l/m 0,00 h 0,00 h 0 W/m 10,5 km/h (2 Bft) 98,01 %
18.02.2018 22:00 1,0 C 0,8 C -1,3 C 85 % 0 lf 1022,7 hPa 0,0 l/m 0,00 h 0,00 h 0 W/m 10,4 km/h (2 Bft) 96,51 %
18.02.2018 23:00 0,6 C -0,1 C -2,7 C 85 % 0 lf 1022,6 hPa 0,0 l/m 0,00 h 0,00 h 0 W/m 8,0 km/h (2 Bft) 94,44 %
Min-Datum _ 18.02.18 17.02.18 18.02.18 14.02.18 12.02.18 12.02.18 - - - - 15.02.18 15.02.18
_ Min-Zeit 02:04 22:24 01:12 15:18 00:00 00:00 - - - - 18:46 04:05
Minimum _ -3,0 C -3,9 C -6,1 C 57 % 0 lf 1005,2 hPa - - - - 0,0 km/h (0 Bft) 3,51 %
Max-Datum _ 16.02.18 16.02.18 16.02.18 15.02.18 12.02.18 18.02.18 15.02.18 14.02.18 15.02.18 12.02.18 15.02.18 12.02.18
_ Max-Zeit 15:12 13:14 14:54 19:36 00:16 11:48 10:06 09:06 05:40 13:28 07:16 00:02
Maximum _ 8,4 C 17,8 C 7,8 C 99 % 15 lf 1025,9 hPa 1,2 l/m 0,08 h 0,08 h 558 W/m 54,1 km/h
S-SO (7 Bft)
100,00 %
Durchschnitt _ 1,7 C 2,6 C -0,4 C 84 % 4 lf 1017,0 hPa #5,8 l/m #43:41 h #8:01 h 187 W/m 16,4 km/h (3 Bft) 96,38 %
© 2018 W. Hausmann